Time;durP1;ratioP1;P1;durP2;ratioP2;P2;SDS_P1;SDS_P2;PMS_P1;PMS_P2;Temp;Humidity;BMP_temperature;BMP_pressure;BME280_temperature;BME280_humidity;BME280_pressure;Samples;Min_cycle;Max_cycle;Signal;HPM_P1;HPM_P2
2021/07/23 00:01:43;;;;;;;14.10;9.30;;;;;;;13.91;100.00;101047.78;4979146;28;20261;-75
2021/07/23 00:04:10;;;;;;;13.63;8.87;;;;;;;13.91;100.00;101050.41;4980376;28;20210;-76
2021/07/23 00:06:37;;;;;;;11.87;7.97;;;;;;;13.99;100.00;101051.00;4980590;28;20247;-75
2021/07/23 00:09:03;;;;;;;13.43;9.07;;;;;;;14.03;100.00;101043.88;4978083;28;20552;-75
2021/07/23 00:11:30;;;;;;;13.47;8.23;;;;;;;13.79;100.00;101051.66;4988425;28;20296;-76
2021/07/23 00:13:56;;;;;;;10.90;8.10;;;;;;;13.71;100.00;101043.19;4983945;28;20205;-75
2021/07/23 00:16:24;;;;;;;11.43;8.03;;;;;;;13.66;100.00;101049.47;4987241;28;20216;-75
2021/07/23 00:18:50;;;;;;;12.03;8.47;;;;;;;13.59;100.00;101047.03;4978067;28;20221;-75
2021/07/23 00:21:17;;;;;;;14.20;9.00;;;;;;;13.62;100.00;101046.94;4988832;28;20216;-76
2021/07/23 00:23:43;;;;;;;12.37;8.43;;;;;;;13.67;100.00;101045.94;4978644;28;20281;-75
2021/07/23 00:26:10;;;;;;;13.80;8.70;;;;;;;13.64;100.00;101052.16;4991528;28;20225;-76
2021/07/23 00:28:37;;;;;;;13.27;8.63;;;;;;;13.47;100.00;101054.44;4985125;28;20193;-75
2021/07/23 00:31:03;;;;;;;12.60;8.77;;;;;;;13.49;100.00;101050.88;4986650;28;20519;-76
2021/07/23 00:33:31;;;;;;;13.50;8.57;;;;;;;13.55;100.00;101042.81;4984611;28;20650;-75
2021/07/23 00:35:58;;;;;;;14.37;9.10;;;;;;;13.61;100.00;101039.13;4971196;28;20749;-76
2021/07/23 00:38:25;;;;;;;11.80;8.57;;;;;;;13.43;100.00;101048.44;4988716;28;20303;-76
2021/07/23 00:40:51;;;;;;;12.87;8.50;;;;;;;13.39;100.00;101045.06;4986264;28;20287;-75
2021/07/23 00:43:18;;;;;;;11.20;7.90;;;;;;;13.36;100.00;101036.44;4975696;28;21201;-75
2021/07/23 00:45:45;;;;;;;14.47;8.87;;;;;;;13.39;100.00;101042.44;4983859;28;20238;-76
2021/07/23 00:48:14;;;;;;;13.17;8.70;;;;;;;13.29;100.00;101045.38;4972786;28;20279;-76
2021/07/23 00:50:44;;;;;;;13.40;8.50;;;;;;;13.23;100.00;101047.28;4978504;28;20213;-76
2021/07/23 00:53:11;;;;;;;15.27;9.27;;;;;;;13.27;100.00;101043.66;4984344;28;20216;-76
2021/07/23 00:55:39;;;;;;;13.00;9.07;;;;;;;13.22;100.00;101044.69;4981161;28;20322;-75
2021/07/23 00:58:06;;;;;;;11.47;8.33;;;;;;;13.31;100.00;101041.81;4984560;28;20231;-75
2021/07/23 01:00:36;;;;;;;12.27;8.40;;;;;;;13.36;100.00;101041.69;4968870;28;20211;-76
2021/07/23 01:03:04;;;;;;;13.57;8.73;;;;;;;13.38;100.00;101047.72;4977567;28;20220;-75
2021/07/23 01:05:31;;;;;;;12.80;8.23;;;;;;;13.24;100.00;101045.50;4962528;28;20233;-75
2021/07/23 01:08:01;;;;;;;13.67;9.30;;;;;;;13.07;100.00;101052.09;4983591;28;20214;-75
2021/07/23 01:10:29;;;;;;;13.17;9.60;;;;;;;13.07;100.00;101046.88;4974426;28;20205;-76
2021/07/23 01:13:17;;;;;;;13.90;9.00;;;;;;;13.03;100.00;101040.03;4994544;28;21312;-75
2021/07/23 01:15:45;;;;;;;13.90;8.83;;;;;;;12.97;100.00;101045.44;4971952;28;20704;-76
2021/07/23 01:18:13;;;;;;;11.90;8.27;;;;;;;13.05;100.00;101047.81;4977777;28;20510;-75
2021/07/23 01:20:43;;;;;;;14.30;9.17;;;;;;;12.95;100.00;101043.78;4962938;28;20208;-75
2021/07/23 01:23:15;;;;;;;15.43;8.50;;;;;;;13.02;100.00;101045.31;4962782;28;20220;-75
2021/07/23 01:25:43;;;;;;;13.30;9.20;;;;;;;13.08;100.00;101039.88;4966279;28;20236;-76
2021/07/23 01:28:10;;;;;;;14.27;8.50;;;;;;;13.10;100.00;101034.59;4980798;28;20222;-75
2021/07/23 01:30:39;;;;;;;12.17;8.60;;;;;;;13.05;100.00;101032.97;4980428;28;20212;-76
2021/07/23 01:33:16;;;;;;;13.50;8.57;;;;;;;12.98;100.00;101035.81;4982272;28;20208;-76
2021/07/23 01:35:45;;;;;;;12.83;8.50;;;;;;;13.08;100.00;101032.00;4978071;28;20692;-76
2021/07/23 01:38:11;;;;;;;14.53;9.07;;;;;;;12.97;100.00;101026.25;4985036;28;20220;-76
2021/07/23 01:40:38;;;;;;;13.20;8.47;;;;;;;12.92;100.00;101026.38;4979929;28;20300;-76
2021/07/23 01:43:06;;;;;;;13.10;8.97;;;;;;;12.95;100.00;101028.06;4965642;28;20216;-75
2021/07/23 01:45:33;;;;;;;13.20;8.60;;;;;;;13.04;100.00;101026.00;4979728;28;20241;-75
2021/07/23 01:48:19;;;;;;;13.57;8.60;;;;;;;12.87;100.00;101023.03;4983127;28;20214;-75
2021/07/23 01:50:46;;;;;;;13.13;8.67;;;;;;;12.93;100.00;101017.66;4961218;28;20209;-76
2021/07/23 01:53:12;;;;;;;13.60;8.70;;;;;;;12.99;100.00;101025.28;4984661;28;20309;-75
2021/07/23 01:55:50;;;;;;;15.17;8.97;;;;;;;13.11;100.00;101010.13;4965045;28;20240;-75
2021/07/23 01:58:18;;;;;;;13.93;8.67;;;;;;;13.10;100.00;101011.03;4982338;28;20263;-75
2021/07/23 02:00:45;;;;;;;12.57;8.57;;;;;;;12.99;100.00;101013.97;4966526;28;20648;-76
2021/07/23 02:03:17;;;;;;;13.47;8.20;;;;;;;12.95;100.00;101012.38;4966189;28;20585;-75
2021/07/23 02:05:45;;;;;;;12.97;8.57;;;;;;;13.00;100.00;101013.09;4981855;28;20239;-75
2021/07/23 02:08:11;;;;;;;12.97;8.00;;;;;;;12.96;100.00;101020.16;4963946;28;20317;-77
2021/07/23 02:10:38;;;;;;;12.23;7.77;;;;;;;12.87;100.00;101010.84;4965069;28;20749;-78
2021/07/23 02:13:06;;;;;;;15.63;8.43;;;;;;;12.97;100.00;101014.03;4965274;28;20210;-78
2021/07/23 02:15:37;;;;;;;15.73;8.70;;;;;;;12.83;100.00;101024.03;4962786;28;20238;-77
2021/07/23 02:18:04;;;;;;;13.67;8.73;;;;;;;12.80;100.00;101021.50;4961429;28;20219;-76
2021/07/23 02:20:34;;;;;;;14.40;8.80;;;;;;;12.81;100.00;101015.38;4962127;28;20761;-77
2021/07/23 02:23:02;;;;;;;12.70;8.57;;;;;;;13.03;100.00;101010.34;4978234;28;20694;-78
2021/07/23 02:25:35;;;;;;;12.20;8.23;;;;;;;13.03;100.00;101011.22;4965799;28;20878;-78
2021/07/23 02:28:03;;;;;;;13.57;8.60;;;;;;;12.97;100.00;101015.78;4972700;28;20219;-78
2021/07/23 02:30:30;;;;;;;12.27;8.00;;;;;;;13.04;100.00;101017.31;4968168;28;20228;-78
2021/07/23 02:33:16;;;;;;;12.47;8.50;;;;;;;13.00;100.00;101016.56;4984635;28;20302;-76
2021/07/23 02:35:43;;;;;;;12.77;8.37;;;;;;;13.02;100.00;101019.97;4966944;28;20227;-75
2021/07/23 02:38:09;;;;;;;13.67;8.10;;;;;;;13.02;100.00;101017.34;4984067;28;20300;-76
2021/07/23 02:40:36;;;;;;;13.43;8.83;;;;;;;12.93;100.00;101017.66;4964219;28;20213;-75
2021/07/23 02:43:03;;;;;;;10.53;8.03;;;;;;;12.89;100.00;101018.63;4984219;28;20217;-76
2021/07/23 02:45:35;;;;;;;10.53;7.43;;;;;;;12.91;100.00;101011.59;4991773;28;20281;-76
2021/07/23 02:48:03;;;;;;;13.57;8.87;;;;;;;12.96;100.00;100996.59;4980823;28;20206;-75
2021/07/23 02:50:32;;;;;;;12.87;9.03;;;;;;;13.09;100.00;101002.34;4963939;28;20211;-75
2021/07/23 02:52:58;;;;;;;14.97;8.63;;;;;;;12.98;100.00;100996.53;4979507;28;20313;-75
2021/07/23 02:55:25;;;;;;;12.60;8.67;;;;;;;13.00;100.00;101000.84;4966600;28;20253;-75
2021/07/23 02:57:54;;;;;;;12.43;8.53;;;;;;;13.04;100.00;101009.47;4977535;28;20220;-75
2021/07/23 03:00:25;;;;;;;12.70;8.77;;;;;;;13.19;100.00;100995.91;4982085;28;20230;-76
2021/07/23 03:02:54;;;;;;;14.33;8.73;;;;;;;13.20;100.00;100997.59;4958536;28;20341;-76
2021/07/23 03:05:21;;;;;;;13.77;8.67;;;;;;;13.33;100.00;100999.88;4962034;28;20590;-75
2021/07/23 03:07:53;;;;;;;15.80;9.60;;;;;;;13.34;100.00;100991.13;4964083;28;20208;-76
2021/07/23 03:10:22;;;;;;;14.10;9.80;;;;;;;13.27;100.00;100993.03;4961337;28;20680;-75
2021/07/23 03:12:49;;;;;;;13.47;8.17;;;;;;;13.36;100.00;100994.53;4963105;28;20290;-76
2021/07/23 03:15:16;;;;;;;13.80;8.93;;;;;;;13.36;100.00;100992.78;4980581;28;20315;-76
2021/07/23 03:17:45;;;;;;;15.17;9.83;;;;;;;13.46;100.00;100988.13;4977602;28;20860;-76
2021/07/23 03:20:12;;;;;;;15.00;9.73;;;;;;;13.47;100.00;100987.19;4979084;28;20731;-76
2021/07/23 03:22:40;;;;;;;17.67;9.27;;;;;;;13.62;100.00;100985.84;4979493;28;20260;-76
2021/07/23 03:25:20;;;;;;;15.87;10.10;;;;;;;13.68;100.00;100990.88;4960862;28;20236;-76
2021/07/23 03:28:04;;;;;;;12.77;8.97;;;;;;;13.83;100.00;100985.13;4983118;28;20575;-76
2021/07/23 03:30:44;;;;;;;14.53;9.27;;;;;;;13.73;100.00;100985.50;4990544;28;20315;-77
2021/07/23 03:33:12;;;;;;;13.60;9.20;;;;;;;13.77;100.00;100976.59;4983526;28;20603;-76
2021/07/23 03:35:40;;;;;;;13.57;9.33;;;;;;;13.82;100.00;100983.44;4978444;28;20328;-76
2021/07/23 03:38:09;;;;;;;13.60;9.03;;;;;;;13.83;100.00;100979.03;4961429;28;20242;-76
2021/07/23 03:40:38;;;;;;;14.27;9.70;;;;;;;13.82;100.00;100987.78;4976757;28;20235;-75
2021/07/23 03:43:14;;;;;;;12.87;9.10;;;;;;;13.87;100.00;100985.03;4979181;28;20198;-76
2021/07/23 03:45:54;;;;;;;14.00;9.50;;;;;;;13.88;100.00;100986.72;4960710;28;20260;-76
2021/07/23 03:48:21;;;;;;;13.73;9.30;;;;;;;13.91;100.00;100987.50;4976659;28;20212;-76
2021/07/23 03:50:49;;;;;;;14.50;9.30;;;;;;;13.95;100.00;100991.72;4964704;28;20219;-75
2021/07/23 03:53:18;;;;;;;13.70;8.60;;;;;;;13.98;100.00;100982.88;4962178;28;20208;-76
2021/07/23 03:55:46;;;;;;;15.20;9.40;;;;;;;14.06;100.00;100982.63;4983121;28;20240;-76
2021/07/23 03:58:27;;;;;;;13.00;8.87;;;;;;;14.14;100.00;100973.59;4967507;28;20198;-76
2021/07/23 04:00:54;;;;;;;13.53;9.77;;;;;;;14.10;100.00;100982.44;4967983;28;20754;-76
2021/07/23 04:03:20;;;;;;;13.97;9.17;;;;;;;14.17;100.00;100983.94;4968188;28;20202;-76
2021/07/23 04:05:49;;;;;;;15.80;9.37;;;;;;;14.22;100.00;100985.56;4984286;28;20225;-76
2021/07/23 04:08:15;;;;;;;14.67;9.87;;;;;;;14.22;100.00;100982.94;4984182;28;20725;-76
2021/07/23 04:10:42;;;;;;;13.40;8.90;;;;;;;14.26;100.00;100980.13;4983448;28;20704;-75
2021/07/23 04:13:10;;;;;;;14.80;9.47;;;;;;;14.25;100.00;100981.06;4985785;28;20208;-76
2021/07/23 04:15:41;;;;;;;13.57;9.37;;;;;;;14.35;100.00;100977.22;4979563;28;20808;-76
2021/07/23 04:18:12;;;;;;;13.67;9.27;;;;;;;14.43;100.00;100978.69;4985742;28;20806;-76
2021/07/23 04:20:58;;;;;;;15.57;9.43;;;;;;;14.41;100.00;100980.53;4977687;28;20580;-76
2021/07/23 04:23:25;;;;;;;15.30;9.63;;;;;;;14.46;100.00;100978.56;4969094;28;20594;-75
2021/07/23 04:25:52;;;;;;;16.10;9.30;;;;;;;14.41;100.00;100988.38;4981628;28;20232;-76
2021/07/23 04:28:23;;;;;;;14.90;9.50;;;;;;;14.40;100.00;100990.13;4968957;28;20683;-75
2021/07/23 04:30:50;;;;;;;13.63;9.80;;;;;;;14.41;100.00;100996.25;4978812;28;20201;-76
2021/07/23 04:33:19;;;;;;;14.20;9.80;;;;;;;14.38;100.00;100999.84;4965771;28;20269;-76
2021/07/23 04:36:02;;;;;;;13.73;9.57;;;;;;;14.49;100.00;100994.19;4966106;28;20981;-76
2021/07/23 04:38:29;;;;;;;15.10;9.90;;;;;;;14.56;100.00;100993.06;4966097;28;20601;-76
2021/07/23 04:40:58;;;;;;;15.10;10.00;;;;;;;14.66;100.00;100991.84;4985380;28;20773;-75
2021/07/23 04:43:38;;;;;;;14.60;11.07;;;;;;;14.75;100.00;100993.25;4966705;28;20203;-76
2021/07/23 04:46:06;;;;;;;15.87;10.00;;;;;;;14.81;100.00;100993.03;4969008;28;20626;-75
2021/07/23 04:48:33;;;;;;;16.03;10.37;;;;;;;14.84;100.00;100989.44;4976670;28;20205;-76
2021/07/23 04:51:09;;;;;;;13.73;9.83;;;;;;;14.89;100.00;100988.34;4960285;28;20618;-76
2021/07/23 04:53:42;;;;;;;14.67;10.10;;;;;;;15.01;100.00;100992.28;4980855;28;20209;-76
2021/07/23 04:56:27;;;;;;;16.97;10.27;;;;;;;15.08;100.00;100987.63;4981720;28;20275;-76
2021/07/23 04:58:54;;;;;;;15.03;9.83;;;;;;;15.11;100.00;100980.50;4982297;28;20205;-76
2021/07/23 05:01:21;;;;;;;13.60;9.50;;;;;;;15.21;100.00;100978.34;4967667;28;20716;-76
2021/07/23 05:03:47;;;;;;;14.50;10.00;;;;;;;15.29;100.00;100986.78;4983837;28;20247;-76
2021/07/23 05:06:14;;;;;;;14.47;10.10;;;;;;;15.38;100.00;100984.72;4968362;28;20656;-76
2021/07/23 05:08:40;;;;;;;15.80;9.60;;;;;;;15.36;100.00;100983.94;4984035;28;20225;-75
2021/07/23 05:11:13;;;;;;;16.60;11.23;;;;;;;15.38;100.00;100974.19;4959889;28;20212;-76
2021/07/23 05:13:40;;;;;;;17.13;10.27;;;;;;;15.44;100.00;100974.81;4967231;28;20205;-76
2021/07/23 05:16:09;;;;;;;15.10;9.70;;;;;;;15.51;100.00;100978.03;4981128;28;20663;-76
2021/07/23 05:18:37;;;;;;;16.53;10.27;;;;;;;15.59;100.00;100973.31;4982293;28;20237;-76
2021/07/23 05:21:05;;;;;;;15.40;10.13;;;;;;;15.68;100.00;100978.19;4977138;28;20579;-76
2021/07/23 05:23:33;;;;;;;16.43;10.17;;;;;;;15.76;100.00;100975.28;4966753;28;20219;-76
2021/07/23 05:25:59;;;;;;;16.77;10.53;;;;;;;15.85;100.00;100960.91;4982246;28;20632;-76
2021/07/23 05:28:26;;;;;;;14.93;9.93;;;;;;;15.92;100.00;100966.72;4980982;28;20319;-76
2021/07/23 05:30:53;;;;;;;14.93;10.20;;;;;;;15.96;100.00;100963.91;4984003;28;20201;-76
2021/07/23 05:33:20;;;;;;;14.40;9.97;;;;;;;16.03;100.00;100965.34;4980527;28;20651;-76
2021/07/23 05:35:47;;;;;;;18.07;11.67;;;;;;;16.12;100.00;100961.47;4984823;28;20225;-76
2021/07/23 05:38:14;;;;;;;16.50;10.97;;;;;;;16.20;100.00;100961.97;4979621;28;20698;-76
2021/07/23 05:40:40;;;;;;;16.77;10.40;;;;;;;16.30;100.00;100970.31;4983073;28;20716;-75
2021/07/23 05:43:06;;;;;;;15.80;10.27;;;;;;;16.36;100.00;100958.66;4979961;28;20209;-76
2021/07/23 05:45:33;;;;;;;19.67;10.60;;;;;;;16.44;100.00;100960.00;4986759;28;20225;-75
2021/07/23 05:47:59;;;;;;;13.87;9.93;;;;;;;16.50;100.00;100958.03;4977674;28;20201;-76
2021/07/23 05:50:27;;;;;;;13.40;9.27;;;;;;;16.61;100.00;100959.25;4984683;28;20209;-76
2021/07/23 05:52:53;;;;;;;15.97;9.23;;;;;;;16.70;100.00;100959.75;4976493;28;20206;-76
2021/07/23 05:55:21;;;;;;;14.87;9.50;;;;;;;16.79;100.00;100957.53;4982828;28;20221;-75
2021/07/23 05:57:48;;;;;;;16.80;9.37;;;;;;;16.86;100.00;100957.28;4981756;28;20201;-74
2021/07/23 06:00:15;;;;;;;15.60;10.33;;;;;;;16.88;100.00;100961.56;4981652;28;20477;-76
2021/07/23 06:02:41;;;;;;;16.30;10.20;;;;;;;17.07;100.00;100968.59;4982099;28;20209;-76
2021/07/23 06:05:09;;;;;;;14.03;9.40;;;;;;;17.18;100.00;100964.53;4980049;28;20232;-75
2021/07/23 06:07:39;;;;;;;13.90;9.93;;;;;;;17.35;100.00;100962.84;4982332;28;20217;-75
2021/07/23 06:10:06;;;;;;;15.17;10.57;;;;;;;17.41;100.00;100966.03;4979273;28;20267;-76
2021/07/23 06:12:33;;;;;;;17.20;10.20;;;;;;;17.49;100.00;100970.91;4983588;28;20785;-76
2021/07/23 06:14:59;;;;;;;18.00;10.03;;;;;;;17.62;100.00;100978.22;4979270;28;21192;-75
2021/07/23 06:17:25;;;;;;;15.77;10.60;;;;;;;17.69;100.00;100969.91;4985691;28;20209;-76
2021/07/23 06:19:52;;;;;;;14.43;9.97;;;;;;;17.78;100.00;100976.50;4976171;28;20221;-76
2021/07/23 06:22:19;;;;;;;17.37;10.97;;;;;;;17.94;100.00;100973.97;4983256;28;20212;-75
2021/07/23 06:24:48;;;;;;;14.47;9.87;;;;;;;18.01;97.98;100977.13;4979520;28;20248;-75
2021/07/23 06:27:14;;;;;;;17.03;9.97;;;;;;;18.16;98.43;100979.84;4982435;28;20747;-75
2021/07/23 06:29:40;;;;;;;13.10;9.57;;;;;;;18.27;98.11;100979.25;4981283;28;20206;-76
2021/07/23 06:32:07;;;;;;;15.17;10.03;;;;;;;18.38;96.94;100977.84;4983184;28;20201;-75
2021/07/23 06:34:34;;;;;;;14.57;9.53;;;;;;;18.46;96.89;100983.59;4982707;28;20706;-75
2021/07/23 06:37:02;;;;;;;15.83;10.27;;;;;;;18.49;94.92;100986.06;4979812;28;20296;-75
2021/07/23 06:39:29;;;;;;;15.37;10.60;;;;;;;18.59;96.61;100984.63;4980674;28;20710;-75
2021/07/23 06:41:59;;;;;;;15.27;10.40;;;;;;;18.78;95.31;100986.25;4977683;28;20854;-76
2021/07/23 06:44:28;;;;;;;14.30;9.97;;;;;;;18.94;94.26;100984.50;4984099;28;20718;-75
2021/07/23 06:46:55;;;;;;;13.77;9.23;;;;;;;18.99;93.66;100994.81;4979913;28;20217;-75
2021/07/23 06:49:21;;;;;;;15.80;10.10;;;;;;;19.07;93.14;100990.81;4965220;28;20217;-76
2021/07/23 06:51:47;;;;;;;15.73;10.53;;;;;;;19.12;92.56;100987.94;4976406;28;20221;-75
2021/07/23 06:54:14;;;;;;;14.00;10.17;;;;;;;19.23;93.32;100990.81;4983952;28;20205;-75
2021/07/23 06:56:40;;;;;;;13.30;9.53;;;;;;;19.27;92.83;100989.69;4979461;28;20221;-76
2021/07/23 06:59:08;;;;;;;16.80;10.53;;;;;;;19.40;92.66;100991.63;4985325;28;20209;-75
2021/07/23 07:01:34;;;;;;;15.27;10.00;;;;;;;19.47;89.67;100996.50;4981222;28;20221;-75
2021/07/23 07:04:01;;;;;;;15.23;9.40;;;;;;;19.58;89.67;100995.03;4975106;28;20213;-75
2021/07/23 07:06:28;;;;;;;15.00;10.03;;;;;;;19.64;87.51;100992.00;4984094;28;20413;-75
2021/07/23 07:08:54;;;;;;;13.87;9.40;;;;;;;19.78;88.84;100994.72;4979804;28;20224;-75
2021/07/23 07:11:20;;;;;;;15.17;10.17;;;;;;;19.82;87.75;100987.47;4982530;28;20220;-76
2021/07/23 07:13:47;;;;;;;12.97;8.97;;;;;;;19.92;87.31;100993.06;4981197;28;20206;-76
2021/07/23 07:16:15;;;;;;;13.43;8.90;;;;;;;20.00;85.56;100993.47;4984938;28;20559;-76
2021/07/23 07:18:42;;;;;;;14.03;8.73;;;;;;;20.06;83.75;100995.75;4980067;28;20212;-75
2021/07/23 07:21:09;;;;;;;13.93;9.50;;;;;;;20.21;84.35;100993.94;4984695;28;20249;-76
2021/07/23 07:23:35;;;;;;;14.77;9.77;;;;;;;20.48;83.86;100993.22;4977391;28;20206;-75
2021/07/23 07:26:01;;;;;;;13.77;9.50;;;;;;;20.70;83.77;100995.41;4985841;28;20573;-74
2021/07/23 07:28:28;;;;;;;12.83;8.90;;;;;;;20.76;79.88;100997.69;4976044;28;20210;-76
2021/07/23 07:30:54;;;;;;;10.57;8.53;;;;;;;20.82;81.51;100999.09;4983317;28;20209;-75
2021/07/23 07:33:22;;;;;;;12.17;8.47;;;;;;;20.90;77.88;101007.41;4979513;28;20217;-75
2021/07/23 07:35:48;;;;;;;13.33;8.40;;;;;;;21.04;79.29;100991.47;4980206;28;20623;-75
2021/07/23 07:38:14;;;;;;;11.47;8.60;;;;;;;21.13;77.48;100995.31;4981744;28;20320;-76
2021/07/23 07:40:41;;;;;;;11.03;8.30;;;;;;;21.23;76.32;100996.44;4978517;28;20593;-76
2021/07/23 07:43:07;;;;;;;13.83;8.40;;;;;;;21.29;74.83;100998.66;4984931;28;20239;-75
2021/07/23 07:45:36;;;;;;;10.50;7.93;;;;;;;21.45;74.75;100997.66;4982116;28;20320;-75
2021/07/23 07:48:02;;;;;;;12.67;8.00;;;;;;;21.82;75.56;100993.44;4982579;28;20599;-75
2021/07/23 07:50:30;;;;;;;12.77;8.50;;;;;;;21.98;72.78;101003.00;4980082;28;20216;-75
2021/07/23 07:52:56;;;;;;;14.15;8.68;;;;;;;22.02;71.88;101002.72;4985937;28;20320;-75
2021/07/23 07:55:23;;;;;;;11.90;8.68;;;;;;;22.17;73.70;100994.66;4979176;28;20239;-76
2021/07/23 07:57:49;;;;;;;12.73;8.45;;;;;;;22.22;73.25;101003.16;4985367;28;20212;-76
2021/07/23 08:00:16;;;;;;;12.40;8.32;;;;;;;22.20;72.12;101005.03;4981759;28;20245;-76
2021/07/23 08:02:45;;;;;;;13.02;8.40;;;;;;;22.26;72.46;100999.31;4986935;28;20207;-75
2021/07/23 08:05:14;;;;;;;10.95;7.97;;;;;;;22.41;73.18;100994.75;4981720;28;20750;-76
2021/07/23 08:07:41;;;;;;;11.93;7.82;;;;;;;22.55;71.72;101001.75;4984568;28;20329;-76
2021/07/23 08:10:13;;;;;;;11.63;7.72;;;;;;;22.54;67.71;101016.00;4982704;28;20197;-76
2021/07/23 08:12:40;;;;;;;12.45;8.15;;;;;;;22.54;65.04;101011.53;4982945;28;20711;-75
2021/07/23 08:15:07;;;;;;;12.50;8.13;;;;;;;22.76;67.80;101002.03;4988674;28;20228;-75
2021/07/23 08:17:33;;;;;;;11.48;7.78;;;;;;;22.90;66.18;101001.03;4984984;28;20686;-76
2021/07/23 08:20:02;;;;;;;12.38;8.75;;;;;;;22.98;63.26;101009.31;4985209;28;20201;-76
2021/07/23 08:22:29;;;;;;;11.80;7.85;;;;;;;23.08;65.60;100999.75;4970356;28;20213;-76
2021/07/23 08:24:57;;;;;;;11.15;7.60;;;;;;;23.16;64.52;100994.69;4986221;28;20877;-75
2021/07/23 08:27:23;;;;;;;9.02;7.25;;;;;;;23.19;65.57;100999.81;4983445;28;20229;-75
2021/07/23 08:29:50;;;;;;;10.13;7.40;;;;;;;23.28;66.33;100997.44;4988249;28;20210;-76
2021/07/23 08:32:16;;;;;;;10.80;8.63;;;;;;;23.17;66.92;100991.09;4980762;28;20379;-76
2021/07/23 08:34:43;;;;;;;12.00;8.32;;;;;;;23.04;63.39;101006.22;4987249;28;20236;-75
2021/07/23 08:37:09;;;;;;;10.95;8.20;;;;;;;22.96;61.93;101004.13;4983167;28;20197;-76
2021/07/23 08:39:35;;;;;;;10.93;7.30;;;;;;;23.09;63.02;100998.78;4986295;28;20692;-76
2021/07/23 08:42:25;;;;;;;9.43;7.32;;;;;;;23.14;66.24;100986.00;4985659;28;20244;-75
2021/07/23 08:44:52;;;;;;;11.27;7.63;;;;;;;23.37;64.88;100992.28;4984542;28;20469;-76
2021/07/23 08:47:18;;;;;;;12.13;7.90;;;;;;;23.52;65.51;100986.78;4990874;28;20204;-76
2021/07/23 08:49:45;;;;;;;12.50;8.50;;;;;;;23.54;60.64;100993.69;4985810;28;20205;-76
2021/07/23 08:52:11;;;;;;;10.95;8.40;;;;;;;23.49;60.69;100997.66;4990168;28;20197;-76
2021/07/23 08:54:38;;;;;;;11.10;7.88;;;;;;;23.62;63.31;100979.78;4982224;28;20232;-76
2021/07/23 08:57:07;;;;;;;13.32;7.53;;;;;;;23.59;57.39;100996.84;4991455;28;20296;-76
2021/07/23 08:59:35;;;;;;;8.98;7.25;;;;;;;23.62;60.34;100999.28;4982836;28;20770;-76
2021/07/23 09:02:04;;;;;;;10.55;7.60;;;;;;;23.64;58.83;100996.50;4994275;28;20214;-76
2021/07/23 09:04:31;;;;;;;13.95;7.95;;;;;;;23.53;59.67;100991.97;4984371;28;20741;-76
2021/07/23 09:07:29;;;;;;;11.27;8.15;;;;;;;23.63;63.25;100974.34;4989713;28;20216;-76
2021/07/23 09:09:57;;;;;;;9.52;7.38;;;;;;;23.76;63.63;100976.09;4987872;28;20299;-76
2021/07/23 09:12:23;;;;;;;9.32;7.60;;;;;;;23.77;58.66;100986.63;4985120;28;20742;-76
2021/07/23 09:14:51;;;;;;;11.05;7.10;;;;;;;23.72;58.97;100982.63;4987131;28;20225;-76
2021/07/23 09:17:17;;;;;;;13.10;7.78;;;;;;;23.97;61.80;100974.50;4984893;28;20217;-76
2021/07/23 09:19:44;;;;;;;9.48;7.13;;;;;;;24.34;59.38;100981.41;4987415;28;20232;-76
2021/07/23 09:22:10;;;;;;;11.50;8.20;;;;;;;24.43;57.90;100979.81;4980542;28;20217;-76
2021/07/23 09:24:50;;;;;;;11.43;7.32;;;;;;;24.39;58.76;100974.75;4988942;28;20235;-75
2021/07/23 09:27:31;;;;;;;10.00;7.50;;;;;;;24.26;55.16;100981.19;4983116;28;20213;-76
2021/07/23 09:30:01;;;;;;;9.90;7.75;;;;;;;24.36;54.06;100974.13;4986340;28;20697;-75
2021/07/23 09:32:27;;;;;;;14.27;7.90;;;;;;;24.41;54.77;100976.44;4983129;28;20197;-76
2021/07/23 09:35:08;;;;;;;10.50;7.60;;;;;;;24.48;57.11;100970.50;4985426;28;22786;-76
2021/07/23 09:37:35;;;;;;;11.18;7.88;;;;;;;24.57;56.18;100971.63;4986572;28;20675;-76
2021/07/23 09:40:01;;;;;;;10.27;7.40;;;;;;;24.62;55.36;100972.09;4981310;28;20201;-76
2021/07/23 09:42:28;;;;;;;10.40;7.15;;;;;;;24.65;53.90;100977.19;4985874;28;20237;-76
2021/07/23 09:45:02;;;;;;;8.25;6.30;;;;;;;24.95;57.39;100957.00;4981363;28;20233;-76
2021/07/23 09:47:28;;;;;;;9.57;6.78;;;;;;;25.43;57.17;100961.94;4987706;28;20660;-77
2021/07/23 09:49:55;;;;;;;9.63;7.30;;;;;;;25.60;54.05;100959.72;4979032;28;22798;-76
2021/07/23 09:52:22;;;;;;;8.77;6.32;;;;;;;25.62;51.72;100957.75;4987090;28;20201;-76
2021/07/23 09:54:49;;;;;;;8.32;6.68;;;;;;;25.65;50.71;100952.16;4979505;28;20220;-76
2021/07/23 09:57:23;;;;;;;7.88;5.93;;;;;;;25.69;53.46;100953.56;4988899;28;20210;-76
2021/07/23 09:59:58;;;;;;;8.32;6.00;;;;;;;25.58;50.03;100951.81;4982872;28;20292;-76
2021/07/23 10:02:28;;;;;;;7.25;5.88;;;;;;;25.61;51.37;100953.38;4984249;28;20224;-75
2021/07/23 10:05:02;;;;;;;7.25;5.70;;;;;;;25.51;51.50;100947.97;4985330;28;20252;-76
2021/07/23 10:07:36;;;;;;;8.60;6.10;;;;;;;25.53;50.26;100948.69;4982684;28;20231;-76
2021/07/23 10:10:03;;;;;;;7.22;5.95;;;;;;;25.50;55.17;100944.47;4988854;28;20640;-76
2021/07/23 10:12:30;;;;;;;9.00;6.00;;;;;;;25.40;48.61;100956.03;4985735;28;20562;-76
2021/07/23 10:14:57;;;;;;;6.90;5.68;;;;;;;25.44;47.96;100952.97;4986492;28;20292;-76
2021/07/23 10:17:27;;;;;;;9.07;5.80;;;;;;;25.57;52.28;100941.28;4982114;28;20212;-76
2021/07/23 10:19:57;;;;;;;8.85;5.90;;;;;;;25.50;48.57;100948.94;4987413;28;20604;-76
2021/07/23 10:22:25;;;;;;;8.07;5.18;;;;;;;25.54;49.31;100945.06;4981512;28;20614;-76
2021/07/23 10:24:51;;;;;;;6.93;5.55;;;;;;;25.48;50.01;100946.41;4983405;28;20232;-76
2021/07/23 10:27:18;;;;;;;6.38;5.32;;;;;;;25.49;51.03;100940.09;4987595;28;20205;-76
2021/07/23 10:29:46;;;;;;;7.47;5.78;;;;;;;25.40;46.82;100948.03;4966266;28;20214;-76
2021/07/23 10:32:36;;;;;;;6.90;5.43;;;;;;;25.26;46.16;100944.69;4986691;28;20201;-76
2021/07/23 10:35:30;;;;;;;6.68;5.20;;;;;;;25.25;48.53;100943.00;4980013;28;20410;-76
2021/07/23 10:37:57;;;;;;;7.97;5.40;;;;;;;25.22;47.79;100937.03;4985709;28;20219;-76
2021/07/23 10:40:33;;;;;;;7.63;5.43;;;;;;;25.21;48.35;100938.88;4983233;28;20208;-76
2021/07/23 10:42:59;;;;;;;6.88;5.63;;;;;;;25.24;49.88;100933.28;4968535;28;20209;-76
2021/07/23 10:45:41;;;;;;;7.78;5.75;;;;;;;25.31;49.38;100930.94;4984585;28;20894;-76
2021/07/23 10:48:08;;;;;;;8.77;6.22;;;;;;;25.23;47.86;100936.06;4984318;28;20577;-76
2021/07/23 10:50:47;;;;;;;8.70;6.10;;;;;;;25.09;47.01;100939.88;4984989;28;20280;-76
2021/07/23 10:53:33;;;;;;;9.82;6.25;;;;;;;25.05;48.33;100933.97;4981873;28;20212;-76
2021/07/23 10:56:00;;;;;;;9.25;6.13;;;;;;;25.17;50.76;100932.09;4987698;28;20722;-76
2021/07/23 10:58:35;;;;;;;6.93;5.40;;;;;;;25.21;49.73;100927.34;4983084;28;20239;-77
2021/07/23 11:01:03;;;;;;;7.43;5.65;;;;;;;25.32;49.56;100922.00;4979118;28;20240;-76
2021/07/23 11:04:02;;;;;;;9.65;5.82;;;;;;;25.14;48.28;100925.19;4984125;28;20646;-77
2021/07/23 11:06:33;;;;;;;8.15;6.13;;;;;;;25.08;51.47;100917.72;4979342;28;20240;-77
2021/07/23 11:09:04;;;;;;;8.23;5.78;;;;;;;25.14;51.92;100924.34;4986200;28;20209;-76
2021/07/23 11:11:31;;;;;;;7.82;5.68;;;;;;;25.23;49.02;100922.72;4983835;28;20201;-76
2021/07/23 11:14:14;;;;;;;8.20;6.13;;;;;;;25.16;49.34;100918.88;4986748;28;20197;-77
2021/07/23 11:16:40;;;;;;;7.45;5.28;;;;;;;25.11;49.90;100924.59;4979021;28;20283;-76
2021/07/23 11:19:08;;;;;;;7.25;5.63;;;;;;;24.95;47.77;100920.50;4987424;28;20209;-76
2021/07/23 11:21:36;;;;;;;8.77;6.18;;;;;;;24.86;48.13;100921.28;4981446;28;20220;-76